Time;durP1;ratioP1;P1;durP2;ratioP2;P2;SDS_P1;SDS_P2;PMS_P1;PMS_P2;Temp;Humidity;BMP_temperature;BMP_pressure;BME280_temperature;BME280_humidity;BME280_pressure;Samples;Min_cycle;Max_cycle;Signal;HPM_P1;HPM_P2
2022/10/30 00:01:20;;;;;;;22.52;11.45;;;17.90;99.90;;;;;;5068963;28;20553;-74
2022/10/30 00:03:47;;;;;;;16.33;9.43;;;17.90;99.90;;;;;;5068751;28;20045;-75
2022/10/30 00:06:15;;;;;;;15.18;9.80;;;17.90;99.90;;;;;;5069190;28;20072;-74
2022/10/30 00:08:43;;;;;;;18.33;10.15;;;17.90;99.90;;;;;;5068896;28;20068;-75
2022/10/30 00:11:12;;;;;;;15.93;9.40;;;17.90;99.90;;;;;;5067678;28;20052;-75
2022/10/30 00:13:43;;;;;;;14.77;10.93;;;17.90;99.90;;;;;;5067407;28;20040;-75
2022/10/30 00:16:10;;;;;;;17.73;9.30;;;17.80;99.90;;;;;;5067498;28;20056;-74
2022/10/30 00:18:40;;;;;;;14.52;9.65;;;17.90;99.90;;;;;;5067285;28;20048;-76
2022/10/30 00:21:10;;;;;;;15.05;10.05;;;17.80;99.90;;;;;;5034594;28;20052;-75
2022/10/30 00:23:39;;;;;;;16.40;10.82;;;17.80;99.90;;;;;;5041482;28;20052;-75
2022/10/30 00:26:07;;;;;;;21.25;11.57;;;17.80;99.90;;;;;;5050229;28;20523;-75
2022/10/30 00:28:35;;;;;;;17.27;10.38;;;17.80;99.90;;;;;;5066970;28;20048;-74
2022/10/30 00:31:04;;;;;;;17.00;11.05;;;17.80;99.90;;;;;;5066906;28;20063;-72
2022/10/30 00:33:31;;;;;;;16.80;11.95;;;17.80;99.90;;;;;;5050534;28;20054;-73
2022/10/30 00:35:59;;;;;;;16.63;10.43;;;17.90;99.90;;;;;;5066767;28;20063;-73
2022/10/30 00:38:27;;;;;;;16.30;11.55;;;17.80;99.90;;;;;;5068602;28;20139;-72
2022/10/30 00:40:55;;;;;;;19.00;11.43;;;17.80;99.90;;;;;;5079168;28;20065;-72
2022/10/30 00:43:38;;;;;;;17.77;11.63;;;17.80;99.90;;;;;;5070312;28;20055;-72
2022/10/30 00:46:43;;;;;;;18.73;10.05;;;17.90;99.90;;;;;;5070660;28;20548;-72
2022/10/30 00:49:18;;;;;;;17.38;10.93;;;17.80;99.90;;;;;;5067149;28;20047;-73
2022/10/30 00:51:49;;;;;;;17.70;11.10;;;17.80;99.90;;;;;;5063205;28;20052;-74
2022/10/30 00:54:19;;;;;;;16.83;10.68;;;17.80;99.90;;;;;;5030829;28;20045;-74
2022/10/30 00:56:48;;;;;;;20.58;10.82;;;17.80;99.90;;;;;;5046993;28;20055;-74
2022/10/30 00:59:27;;;;;;;17.88;11.20;;;17.80;99.90;;;;;;5046656;28;20045;-79
2022/10/30 01:01:55;;;;;;;17.25;11.27;;;17.80;99.90;;;;;;5075046;28;20071;-74
2022/10/30 01:04:23;;;;;;;16.73;11.23;;;17.80;99.90;;;;;;5073310;28;20533;-75
2022/10/30 01:06:52;;;;;;;13.63;10.40;;;17.80;99.90;;;;;;5073457;28;20136;-75
2022/10/30 01:09:21;;;;;;;15.65;10.18;;;17.80;99.90;;;;;;5067916;28;20071;-76
2022/10/30 01:11:48;;;;;;;13.90;11.23;;;17.80;99.90;;;;;;5051016;28;20048;-74
2022/10/30 01:14:19;;;;;;;20.67;11.48;;;17.70;99.90;;;;;;5054082;28;20102;-74
2022/10/30 01:16:59;;;;;;;20.23;12.20;;;17.70;99.90;;;;;;5069451;28;20043;-75
2022/10/30 01:19:57;;;;;;;17.00;11.38;;;17.70;99.90;;;;;;5052208;28;20056;-74
2022/10/30 01:22:39;;;;;;;16.52;10.93;;;17.70;99.90;;;;;;5034346;28;20045;-74
2022/10/30 01:25:25;;;;;;;19.20;12.48;;;17.70;99.90;;;;;;5033956;28;20153;-74
2022/10/30 01:28:21;;;;;;;18.48;12.50;;;17.70;99.90;;;;;;5050461;28;20040;-72
2022/10/30 01:31:06;;;;;;;20.95;12.40;;;17.70;99.90;;;;;;5051886;28;20053;-76
2022/10/30 01:34:22;;;;;;;23.38;12.38;;;17.70;99.90;;;;;;5033860;28;20140;-75
2022/10/30 01:37:00;;;;;;;18.33;11.27;;;17.70;99.90;;;;;;5018008;28;20510;-74
2022/10/30 01:39:34;;;;;;;24.08;15.07;;;17.70;99.90;;;;;;5034000;28;20154;-81
2022/10/30 01:42:43;;;;;;;19.02;12.70;;;17.70;99.90;;;;;;5033413;28;20051;-74
2022/10/30 01:45:26;;;;;;;16.10;11.45;;;17.70;99.90;;;;;;5034022;28;20512;-75
2022/10/30 01:48:17;;;;;;;19.15;11.63;;;17.70;99.90;;;;;;5033330;28;20143;-74
2022/10/30 01:51:18;;;;;;;21.02;12.32;;;17.70;99.90;;;;;;5033615;28;20077;-75
2022/10/30 01:53:54;;;;;;;16.80;12.20;;;17.70;99.90;;;;;;5047354;28;20111;-76
2022/10/30 01:56:23;;;;;;;22.33;12.48;;;17.70;99.90;;;;;;5049897;28;20049;-75
2022/10/30 01:59:15;;;;;;;19.48;14.05;;;17.60;99.90;;;;;;5067121;28;20048;-75
2022/10/30 02:01:43;;;;;;;16.52;11.40;;;17.70;99.90;;;;;;5033397;28;20075;-75
2022/10/30 02:04:13;;;;;;;19.25;12.50;;;17.60;99.90;;;;;;5050114;28;20103;-75
2022/10/30 02:06:41;;;;;;;20.48;12.13;;;17.60;99.90;;;;;;5041019;28;20044;-74
2022/10/30 02:09:09;;;;;;;20.33;12.88;;;17.60;99.90;;;;;;5033494;28;20052;-74
2022/10/30 02:11:47;;;;;;;21.52;12.43;;;17.60;99.90;;;;;;5033123;28;20053;-74
2022/10/30 02:14:23;;;;;;;21.95;14.50;;;17.60;99.90;;;;;;5033446;28;20553;-75
2022/10/30 02:16:53;;;;;;;16.90;11.80;;;17.60;99.90;;;;;;5033242;28;20227;-74
2022/10/30 02:19:21;;;;;;;18.40;11.27;;;17.60;99.90;;;;;;5016865;28;20052;-73
2022/10/30 02:21:49;;;;;;;17.27;13.20;;;17.60;99.90;;;;;;5032215;28;20080;-74
2022/10/30 02:24:17;;;;;;;16.67;11.32;;;17.60;99.90;;;;;;5032760;28;20122;-75
2022/10/30 02:26:45;;;;;;;18.80;11.18;;;17.60;99.90;;;;;;5049414;28;20052;-75
2022/10/30 02:29:13;;;;;;;22.48;11.20;;;17.60;99.90;;;;;;5016358;28;20376;-75
2022/10/30 02:31:41;;;;;;;18.58;10.15;;;17.60;99.90;;;;;;5033198;28;20470;-74
2022/10/30 02:34:09;;;;;;;19.95;11.43;;;17.60;99.90;;;;;;5049441;28;20049;-75
2022/10/30 02:36:37;;;;;;;16.27;10.93;;;17.60;99.90;;;;;;5015871;28;20827;-75
2022/10/30 02:39:05;;;;;;;13.82;9.85;;;17.60;99.90;;;;;;5050412;28;20040;-74
2022/10/30 02:41:35;;;;;;;15.70;10.07;;;17.60;99.90;;;;;;5032443;28;20082;-75
2022/10/30 02:44:03;;;;;;;13.50;9.27;;;17.60;99.90;;;;;;5032460;28;20045;-75
2022/10/30 02:46:33;;;;;;;14.68;10.27;;;17.60;99.90;;;;;;5049220;28;20057;-73
2022/10/30 02:49:01;;;;;;;17.13;10.35;;;17.60;99.90;;;;;;5048804;28;20036;-74
2022/10/30 02:51:31;;;;;;;14.93;11.07;;;17.60;99.90;;;;;;5052192;28;20053;-74
2022/10/30 02:53:59;;;;;;;24.00;10.57;;;17.50;99.90;;;;;;5035859;28;20457;-74
2022/10/30 02:56:28;;;;;;;15.77;10.85;;;17.60;99.90;;;;;;5052201;28;20067;-74
2022/10/30 02:58:56;;;;;;;12.70;8.88;;;17.50;99.90;;;;;;5045624;28;20451;-74
2022/10/30 03:01:24;;;;;;;17.73;10.40;;;17.50;99.90;;;;;;5048607;28;20126;-75
2022/10/30 03:03:55;;;;;;;16.77;10.38;;;17.50;99.90;;;;;;5064094;28;20055;-75
2022/10/30 03:06:24;;;;;;;16.85;10.55;;;17.50;99.90;;;;;;5048820;28;20045;-74
2022/10/30 03:08:52;;;;;;;21.42;10.27;;;17.50;99.90;;;;;;5031878;28;20158;-74
2022/10/30 03:11:20;;;;;;;19.15;10.88;;;17.50;99.90;;;;;;5057665;28;20566;-75
2022/10/30 03:13:48;;;;;;;16.15;11.18;;;17.50;99.90;;;;;;5051779;28;20052;-74
2022/10/30 03:16:19;;;;;;;28.50;12.93;;;17.50;99.90;;;;;;5068712;28;20491;-74
2022/10/30 03:18:47;;;;;;;18.65;12.35;;;17.50;99.90;;;;;;5051958;28;20536;-75
2022/10/30 03:21:17;;;;;;;19.42;12.32;;;17.50;99.90;;;;;;5068561;28;20095;-74
2022/10/30 03:23:45;;;;;;;16.70;11.40;;;17.50;99.90;;;;;;5035460;28;20059;-74
2022/10/30 03:26:12;;;;;;;19.33;12.00;;;17.50;99.90;;;;;;5051985;28;20045;-74
2022/10/30 03:28:48;;;;;;;21.23;14.02;;;17.50;99.90;;;;;;5051747;28;20044;-75
2022/10/30 03:31:17;;;;;;;20.17;12.15;;;17.50;99.90;;;;;;5068200;28;20137;-76
2022/10/30 03:33:46;;;;;;;21.13;12.88;;;17.50;99.90;;;;;;5034269;28;20139;-75
2022/10/30 03:36:14;;;;;;;20.08;13.77;;;17.50;99.90;;;;;;5051401;28;20366;-75
2022/10/30 03:38:42;;;;;;;21.15;15.45;;;17.50;99.90;;;;;;5068637;28;20048;-75
2022/10/30 03:41:14;;;;;;;25.20;14.52;;;17.50;99.90;;;;;;5051586;28;20456;-75
2022/10/30 03:43:43;;;;;;;23.70;13.70;;;17.50;99.90;;;;;;5051490;28;20059;-77
2022/10/30 03:46:11;;;;;;;22.02;14.38;;;17.50;99.90;;;;;;5034640;28;20056;-75
2022/10/30 03:48:38;;;;;;;26.38;15.25;;;17.50;99.90;;;;;;5069068;28;20124;-74
2022/10/30 03:51:08;;;;;;;28.73;14.98;;;17.60;99.90;;;;;;5034962;28;20396;-76
2022/10/30 03:53:36;;;;;;;25.33;14.70;;;17.50;99.90;;;;;;5051414;28;20040;-74
2022/10/30 03:56:04;;;;;;;24.60;15.32;;;17.60;99.90;;;;;;5046900;28;20449;-75
2022/10/30 03:58:44;;;;;;;21.67;13.38;;;17.60;99.90;;;;;;5048279;28;20361;-76
2022/10/30 04:01:13;;;;;;;18.65;14.27;;;17.60;99.90;;;;;;5047640;28;20383;-76
2022/10/30 04:03:45;;;;;;;29.85;14.55;;;17.60;99.90;;;;;;5047491;28;20513;-74
2022/10/30 04:06:13;;;;;;;23.33;15.80;;;17.60;99.90;;;;;;5047536;28;20051;-75
2022/10/30 04:08:40;;;;;;;24.52;13.20;;;17.60;99.90;;;;;;5047895;28;20526;-75
2022/10/30 04:11:10;;;;;;;21.35;12.27;;;17.60;99.90;;;;;;5030913;28;20147;-74
2022/10/30 04:13:38;;;;;;;31.17;15.50;;;17.60;99.90;;;;;;5030629;28;20048;-74
2022/10/30 04:16:06;;;;;;;26.10;14.18;;;17.50;99.90;;;;;;5047077;28;20829;-74
2022/10/30 04:18:33;;;;;;;22.75;13.40;;;17.60;99.90;;;;;;5047273;28;20149;-75
2022/10/30 04:21:01;;;;;;;23.90;12.90;;;17.60;99.90;;;;;;5047635;28;20040;-75
2022/10/30 04:23:29;;;;;;;22.83;13.60;;;17.60;99.90;;;;;;5047697;28;20041;-75
2022/10/30 04:25:59;;;;;;;23.30;15.13;;;17.60;99.90;;;;;;5030581;28;20140;-75
2022/10/30 04:28:27;;;;;;;22.48;14.80;;;17.60;99.90;;;;;;5047155;28;20696;-75
2022/10/30 04:30:56;;;;;;;27.30;14.18;;;17.60;99.90;;;;;;5047279;28;20496;-76
2022/10/30 04:33:25;;;;;;;23.73;13.23;;;17.60;99.90;;;;;;5031072;28;20049;-75
2022/10/30 04:35:53;;;;;;;22.65;14.82;;;17.60;99.90;;;;;;5046804;28;20110;-75
2022/10/30 04:38:22;;;;;;;23.63;14.82;;;17.60;99.90;;;;;;5047390;28;20478;-74
2022/10/30 04:40:50;;;;;;;34.08;15.43;;;17.60;99.90;;;;;;5047228;28;20049;-74
2022/10/30 04:43:18;;;;;;;23.48;13.55;;;17.60;99.90;;;;;;5031098;28;20059;-74
2022/10/30 04:45:50;;;;;;;24.50;14.10;;;17.60;99.90;;;;;;5047439;28;20048;-75
2022/10/30 04:48:18;;;;;;;31.08;15.57;;;17.60;99.90;;;;;;5066510;28;20049;-74
2022/10/30 04:50:47;;;;;;;24.60;14.60;;;17.60;99.90;;;;;;5034493;28;20080;-74
2022/10/30 04:53:22;;;;;;;29.92;17.45;;;17.60;99.90;;;;;;5051354;28;20040;-75
2022/10/30 04:55:56;;;;;;;27.15;16.60;;;17.60;99.90;;;;;;5051031;28;20487;-75
2022/10/30 04:58:23;;;;;;;29.73;16.70;;;17.60;99.90;;;;;;5067990;28;20489;-74
2022/10/30 05:01:03;;;;;;;;;;;17.60;99.90;;;;;;5068512;28;20044;-72
2022/10/30 05:03:32;;;;;;;27.00;16.02;;;17.60;99.90;;;;;;5051435;28;20099;-75
2022/10/30 05:06:06;;;;;;;28.90;15.35;;;17.60;99.90;;;;;;5051041;28;20063;-75
2022/10/30 05:08:33;;;;;;;33.65;15.55;;;17.60;99.90;;;;;;5034813;28;20378;-76
2022/10/30 05:11:10;;;;;;;23.58;16.15;;;17.60;99.90;;;;;;5034351;28;20642;-74
2022/10/30 05:13:38;;;;;;;28.05;16.15;;;17.60;99.90;;;;;;5050999;28;20569;-74
2022/10/30 05:16:06;;;;;;;35.78;15.88;;;17.70;99.90;;;;;;5033930;28;20048;-76
2022/10/30 05:18:33;;;;;;;31.75;17.20;;;17.70;99.90;;;;;;5052025;28;20048;-74
2022/10/30 05:21:02;;;;;;;29.20;14.57;;;17.70;99.90;;;;;;5034419;28;20102;-74
2022/10/30 05:23:29;;;;;;;29.85;15.65;;;17.70;99.90;;;;;;5050751;28;20044;-75
2022/10/30 05:25:59;;;;;;;25.02;17.13;;;17.60;99.90;;;;;;5050513;28;20055;-76
2022/10/30 05:28:28;;;;;;;26.70;17.20;;;17.60;99.90;;;;;;5050597;28;20049;-75
2022/10/30 05:30:57;;;;;;;25.38;16.70;;;17.70;99.90;;;;;;5050209;28;20451;-74
2022/10/30 05:33:45;;;;;;;25.13;16.98;;;17.70;99.90;;;;;;5046120;28;20064;-75
2022/10/30 05:36:13;;;;;;;30.52;17.00;;;17.70;99.90;;;;;;5033551;28;20052;-76
2022/10/30 05:38:42;;;;;;;29.33;15.82;;;17.80;99.90;;;;;;5017784;28;20049;-74
2022/10/30 05:41:18;;;;;;;30.33;16.75;;;17.90;99.90;;;;;;5050205;28;20174;-76
2022/10/30 05:43:45;;;;;;;29.02;16.90;;;18.00;99.90;;;;;;5033325;28;20189;-75
2022/10/30 05:46:13;;;;;;;24.85;16.30;;;18.00;99.90;;;;;;5031255;28;20154;-75
2022/10/30 05:48:41;;;;;;;25.98;16.17;;;18.10;99.90;;;;;;5056333;28;20417;-75
2022/10/30 05:51:09;;;;;;;27.92;14.90;;;18.20;99.90;;;;;;5070145;28;20051;-76
2022/10/30 05:53:40;;;;;;;27.63;14.05;;;18.30;99.90;;;;;;5069792;28;20044;-74
2022/10/30 05:56:08;;;;;;;21.77;13.30;;;18.30;99.90;;;;;;5053587;28;20114;-73
2022/10/30 05:58:36;;;;;;;28.83;15.43;;;18.30;99.90;;;;;;5053235;28;20041;-72
2022/10/30 06:01:06;;;;;;;26.50;13.30;;;18.40;99.90;;;;;;5036977;28;20441;-73
2022/10/30 06:03:47;;;;;;;28.85;14.52;;;18.50;99.90;;;;;;5054989;28;20056;-73
2022/10/30 06:06:15;;;;;;;24.92;14.38;;;18.60;99.90;;;;;;5053396;28;20044;-72
2022/10/30 06:08:44;;;;;;;21.70;13.38;;;18.80;99.90;;;;;;5070235;28;20542;-72
2022/10/30 06:11:37;;;;;;;21.17;14.10;;;19.10;99.90;;;;;;5069973;28;20067;-73
2022/10/30 06:14:05;;;;;;;24.45;14.70;;;19.20;99.90;;;;;;5052596;28;20151;-73
2022/10/30 06:16:40;;;;;;;22.13;12.20;;;19.50;99.90;;;;;;5037279;28;20051;-73
2022/10/30 06:19:28;;;;;;;17.95;13.25;;;20.00;99.90;;;;;;5059267;28;20133;-73
2022/10/30 06:22:07;;;;;;;19.35;11.35;;;20.50;99.90;;;;;;5054443;28;20056;-73
2022/10/30 06:24:45;;;;;;;27.40;13.65;;;21.10;99.90;;;;;;5069140;28;20576;-73
2022/10/30 06:27:38;;;;;;;16.02;10.50;;;21.60;99.90;;;;;;5067425;28;20056;-73
2022/10/30 06:30:07;;;;;;;19.27;11.07;;;22.30;99.90;;;;;;5070424;28;20554;-73
2022/10/30 06:32:34;;;;;;;14.55;9.75;;;22.60;99.90;;;;;;5052460;28;20044;-73
2022/10/30 06:35:02;;;;;;;17.45;10.55;;;22.70;99.90;;;;;;5067177;28;20057;-73
2022/10/30 06:37:30;;;;;;;22.10;12.57;;;22.70;99.90;;;;;;5052698;28;20032;-73
2022/10/30 06:40:03;;;;;;;15.63;10.30;;;22.70;99.90;;;;;;5052338;28;20211;-72
2022/10/30 06:42:52;;;;;;;19.48;9.98;;;22.60;99.90;;;;;;5062165;28;20494;-73
2022/10/30 06:45:28;;;;;;;16.13;10.45;;;22.70;99.90;;;;;;5069186;28;20056;-73
2022/10/30 06:47:55;;;;;;;20.45;11.15;;;22.70;99.90;;;;;;5068764;28;20093;-74
2022/10/30 06:50:23;;;;;;;16.77;9.40;;;22.80;99.90;;;;;;5052874;28;20054;-74
2022/10/30 06:52:53;;;;;;;18.33;10.63;;;22.80;99.90;;;;;;5069182;28;20483;-73
2022/10/30 06:55:21;;;;;;;16.48;10.02;;;22.60;99.90;;;;;;5052385;28;20048;-73
2022/10/30 06:58:09;;;;;;;17.80;10.15;;;22.50;99.90;;;;;;5066002;28;20068;-74
2022/10/30 07:00:58;;;;;;;19.90;9.00;;;22.60;99.90;;;;;;5038282;28;20053;-72
2022/10/30 07:03:44;;;;;;;13.15;9.05;;;22.70;99.90;;;;;;5068617;28;20048;-72
2022/10/30 07:06:11;;;;;;;29.02;8.90;;;22.80;99.90;;;;;;5035513;28;20142;-74
2022/10/30 07:08:39;;;;;;;16.40;9.20;;;22.90;99.90;;;;;;5034627;28;20460;-72
2022/10/30 07:11:08;;;;;;;12.90;8.13;;;22.80;99.90;;;;;;5051934;28;20526;-73
2022/10/30 07:13:47;;;;;;;18.45;10.35;;;22.80;99.90;;;;;;5051901;28;20140;-71
2022/10/30 07:16:31;;;;;;;12.82;8.27;;;22.70;99.90;;;;;;5054442;28;20106;-72
2022/10/30 07:19:00;;;;;;;15.18;8.07;;;22.70;99.90;;;;;;5052112;28;20091;-72
2022/10/30 07:21:28;;;;;;;11.85;7.75;;;22.70;99.90;;;;;;5051637;28;20045;-72
2022/10/30 07:23:56;;;;;;;15.07;8.07;;;22.80;99.90;;;;;;5068297;28;20044;-72
2022/10/30 07:26:29;;;;;;;24.23;9.00;;;22.80;99.90;;;;;;5051735;28;20506;-73
2022/10/30 07:29:02;;;;;;;13.30;7.95;;;23.00;99.90;;;;;;5035984;28;20056;-73
2022/10/30 07:31:42;;;;;;;15.80;7.72;;;23.00;99.90;;;;;;5067812;28;20216;-72
2022/10/30 07:34:48;;;;;;;19.05;8.25;;;23.20;99.90;;;;;;5067484;28;20076;-73
2022/10/30 07:37:50;;;;;;;16.30;9.05;;;23.20;99.90;;;;;;5039514;28;20074;-73
2022/10/30 07:40:18;;;;;;;14.32;8.45;;;23.10;99.90;;;;;;5051613;28;20514;-74
2022/10/30 07:42:54;;;;;;;22.38;9.98;;;23.00;99.90;;;;;;5068064;28;20048;-73
2022/10/30 07:45:36;;;;;;;12.45;8.00;;;22.80;99.90;;;;;;5068016;28;20048;-73
2022/10/30 07:48:23;;;;;;;13.57;7.80;;;22.90;99.90;;;;;;5067965;28;20080;-72
2022/10/30 07:51:00;;;;;;;13.18;7.82;;;23.00;99.90;;;;;;5067890;28;20052;-73
2022/10/30 07:53:28;;;;;;;12.80;7.93;;;23.20;99.90;;;;;;5059173;28;20049;-75
2022/10/30 07:55:57;;;;;;;11.18;6.00;;;23.20;99.90;;;;;;5043933;28;20056;-72
2022/10/30 07:58:48;;;;;;;11.55;6.80;;;23.30;99.90;;;;;;5052452;28;20435;-74
2022/10/30 08:01:30;;;;;;;10.32;6.13;;;23.50;99.90;;;;;;5081665;28;20052;-71
2022/10/30 08:04:12;;;;;;;11.40;6.43;;;23.60;99.90;;;;;;5067564;28;20040;-73
2022/10/30 08:06:42;;;;;;;13.32;6.95;;;23.50;99.90;;;;;;5051388;28;20395;-71
2022/10/30 08:09:10;;;;;;;10.00;5.97;;;23.50;99.90;;;;;;5050921;28;20052;-75
2022/10/30 08:11:39;;;;;;;12.27;5.32;;;23.20;99.90;;;;;;5050830;28;20048;-72
2022/10/30 08:14:07;;;;;;;11.40;5.97;;;23.10;99.90;;;;;;5051154;28;20115;-71
2022/10/30 08:16:35;;;;;;;12.60;5.55;;;23.20;99.90;;;;;;5061954;28;20068;-71
2022/10/30 08:19:03;;;;;;;11.48;5.85;;;23.50;99.90;;;;;;5026998;28;20071;-73
2022/10/30 08:21:30;;;;;;;12.00;5.43;;;23.70;99.90;;;;;;5043254;28;20040;-71
2022/10/30 08:24:11;;;;;;;12.15;6.97;;;23.90;99.90;;;;;;5051047;28;20390;-71
2022/10/30 08:26:42;;;;;;;14.77;7.18;;;24.20;99.90;;;;;;5051180;28;20629;-71
2022/10/30 08:29:11;;;;;;;10.40;7.18;;;24.40;99.90;;;;;;5034276;28;20076;-72
2022/10/30 08:31:40;;;;;;;13.20;6.82;;;24.50;99.90;;;;;;5054454;28;20052;-71
2022/10/30 08:34:30;;;;;;;14.25;6.88;;;24.30;99.90;;;;;;5046638;28;20076;-73
2022/10/30 08:37:02;;;;;;;9.10;7.55;;;24.20;99.90;;;;;;5047383;28;20045;-74
2022/10/30 08:39:30;;;;;;;14.02;5.80;;;24.10;99.90;;;;;;5047557;28;20057;-71
2022/10/30 08:42:16;;;;;;;15.30;6.13;;;24.10;99.90;;;;;;5047369;28;20483;-72
2022/10/30 08:44:44;;;;;;;15.45;8.55;;;24.00;99.90;;;;;;5037089;28;20126;-71
2022/10/30 08:47:12;;;;;;;20.15;7.75;;;24.20;99.90;;;;;;5049726;28;20715;-71
2022/10/30 08:49:39;;;;;;;16.60;7.35;;;24.10;99.90;;;;;;5066136;28;20037;-74
2022/10/30 08:52:09;;;;;;;13.15;6.70;;;24.30;99.90;;;;;;5049892;28;20056;-74
2022/10/30 08:54:38;;;;;;;13.05;7.80;;;24.40;99.90;;;;;;5065518;28;20044;-76
2022/10/30 08:57:05;;;;;;;11.10;6.68;;;24.40;99.90;;;;;;5050134;28;20159;-72
2022/10/30 08:59:33;;;;;;;12.85;7.03;;;24.50;99.90;;;;;;5065819;28;20041;-73
2022/10/30 09:02:01;;;;;;;12.07;5.65;;;24.70;99.90;;;;;;5065098;28;20049;-74
2022/10/30 09:04:47;;;;;;;;;;;25.00;99.90;;;;;;5065519;28;20086;-73
2022/10/30 09:07:48;;;;;;;9.80;6.80;;;25.30;99.90;;;;;;5047914;28;19932;-73
2022/10/30 09:10:56;;;;;;;9.98;6.72;;;25.60;99.90;;;;;;5053617;28;20064;-76
2022/10/30 09:13:25;;;;;;;13.85;7.50;;;25.40;99.90;;;;;;5066642;28;20494;-72
2022/10/30 09:15:59;;;;;;;14.27;7.57;;;25.50;99.90;;;;;;5049689;28;20147;-71
2022/10/30 09:18:29;;;;;;;12.20;6.35;;;25.50;99.90;;;;;;5048553;28;20045;-73
2022/10/30 09:20:57;;;;;;;13.65;6.95;;;25.50;99.90;;;;;;5067008;28;20060;-72
2022/10/30 09:23:27;;;;;;;14.20;6.97;;;25.60;99.90;;;;;;5068518;28;20052;-74
2022/10/30 09:26:14;;;;;;;17.33;7.90;;;25.80;99.90;;;;;;5067164;28;20146;-75
2022/10/30 09:28:55;;;;;;;12.20;7.18;;;25.90;99.90;;;;;;5048752;28;20543;-73
2022/10/30 09:31:45;;;;;;;17.85;8.07;;;25.80;99.90;;;;;;5066685;28;20147;-73
2022/10/30 09:34:16;;;;;;;13.13;7.80;;;25.90;99.90;;;;;;5037123;28;20080;-73
2022/10/30 09:36:48;;;;;;;20.73;7.47;;;26.10;99.90;;;;;;5037186;28;20067;-73
2022/10/30 09:39:17;;;;;;;15.65;7.95;;;26.10;99.90;;;;;;5070083;28;20529;-74
2022/10/30 09:42:01;;;;;;;12.50;7.07;;;26.20;99.90;;;;;;5069991;28;20135;-73
2022/10/30 09:45:05;;;;;;;12.27;6.65;;;26.20;99.90;;;;;;5069332;28;20098;-73
2022/10/30 09:48:01;;;;;;;13.15;7.10;;;26.20;99.90;;;;;;5053484;28;20045;-72
2022/10/30 09:50:58;;;;;;;11.10;7.85;;;26.20;99.90;;;;;;5069657;28;20056;-74
2022/10/30 09:54:01;;;;;;;14.50;8.98;;;26.00;99.90;;;;;;5052537;28;20368;-71
2022/10/30 09:56:43;;;;;;;11.90;7.95;;;25.90;99.90;;;;;;5051528;28;20456;-74
2022/10/30 09:59:44;;;;;;;12.40;7.55;;;25.80;99.90;;;;;;5033113;28;20044;-73
2022/10/30 10:02:35;;;;;;;14.88;8.18;;;25.70;99.90;;;;;;5033798;28;20063;-72
2022/10/30 10:05:25;;;;;;;15.27;8.70;;;25.70;99.90;;;;;;5050835;28;20491;-73
2022/10/30 10:08:18;;;;;;;11.25;6.00;;;25.70;99.90;;;;;;5036453;28;20213;-74
2022/10/30 10:11:38;;;;;;;20.65;6.95;;;25.70;99.90;;;;;;5050009;28;20049;-72
2022/10/30 10:14:19;;;;;;;13.65;6.95;;;25.80;99.90;;;;;;5032935;28;20053;-73
2022/10/30 10:16:55;;;;;;;13.27;6.90;;;25.80;99.90;;;;;;5051627;28;20064;-71
2022/10/30 10:19:28;;;;;;;;;;;25.80;99.90;;;;;;5051554;28;20037;-72
2022/10/30 10:22:01;;;;;;;11.65;7.07;;;25.70;99.90;;;;;;5049642;28;19924;-72
2022/10/30 10:24:38;;;;;;;14.48;7.47;;;25.70;99.90;;;;;;5049458;28;20462;-72
2022/10/30 10:27:30;;;;;;;9.43;6.32;;;25.50;99.90;;;;;;5049563;28;20037;-73
2022/10/30 10:30:28;;;;;;;14.70;7.35;;;25.50;99.90;;;;;;5048905;28;20146;-72
2022/10/30 10:33:29;;;;;;;14.60;6.88;;;25.50;99.90;;;;;;5032227;28;20689;-73
2022/10/30 10:36:18;;;;;;;10.27;6.90;;;25.70;99.90;;;;;;5031734;28;20779;-72
2022/10/30 10:39:03;;;;;;;10.60;6.90;;;25.80;99.90;;;;;;5032642;28;20549;-71
2022/10/30 10:41:44;;;;;;;12.00;7.30;;;25.80;99.90;;;;;;5032218;28;20071;-72
2022/10/30 10:44:43;;;;;;;14.65;7.63;;;25.80;99.90;;;;;;5048759;28;20052;-74
2022/10/30 10:47:38;;;;;;;11.95;7.30;;;25.80;99.90;;;;;;5050244;28;20056;-71
2022/10/30 10:50:27;;;;;;;14.15;6.28;;;25.60;99.90;;;;;;5032579;28;20052;-72
2022/10/30 10:53:20;;;;;;;12.55;6.15;;;25.60;99.90;;;;;;5048953;28;20072;-72
2022/10/30 10:55:52;;;;;;;11.82;6.00;;;25.40;99.90;;;;;;5048531;28;20107;-72
2022/10/30 10:58:38;;;;;;;13.93;7.53;;;25.20;99.90;;;;;;5032194;28;20472;-73
2022/10/30 11:01:12;;;;;;;;;;;25.40;99.90;;;;;;5039406;28;20045;-71
2022/10/30 11:03:57;;;;;;;9.93;6.82;;;25.40;99.90;;;;;;5047568;28;19974;-73
2022/10/30 11:06:41;;;;;;;8.98;6.05;;;25.60;99.90;;;;;;5048414;28;20045;-72
2022/10/30 11:09:21;;;;;;;12.32;6.53;;;25.60;99.90;;;;;;5031996;28;20041;-72
2022/10/30 11:11:51;;;;;;;11.15;6.28;;;25.50;99.90;;;;;;5031632;28;20056;-72
2022/10/30 11:14:28;;;;;;;9.52;6.28;;;25.60;99.90;;;;;;5032078;28;20093;-72
2022/10/30 11:17:00;;;;;;;7.60;5.35;;;25.60;99.90;;;;;;5031968;28;20045;-71
2022/10/30 11:19:31;;;;;;;10.13;5.03;;;25.50;99.90;;;;;;5032377;28;20079;-72
2022/10/30 11:22:00;;;;;;;11.93;5.63;;;25.40;99.90;;;;;;5031858;28;20140;-72
2022/10/30 11:24:33;;;;;;;11.32;6.68;;;25.40;99.90;;;;;;5015390;28;20132;-72
2022/10/30 11:27:22;;;;;;;14.60;6.43;;;25.30;99.90;;;;;;5037170;28;20079;-73
2022/10/30 11:29:58;;;;;;;13.30;7.22;;;25.30;99.90;;;;;;5056805;28;20056;-73
2022/10/30 11:32:29;;;;;;;17.20;8.65;;;25.30;99.90;;;;;;5063969;28;20053;-73
2022/10/30 11:35:09;;;;;;;9.40;5.75;;;25.40;99.90;;;;;;5041711;28;20209;-72
2022/10/30 11:37:39;;;;;;;10.38;6.20;;;25.40;99.90;;;;;;5071482;28;20103;-73
2022/10/30 11:40:10;;;;;;;9.25;5.68;;;25.50;99.90;;;;;;5033023;28;20052;-72
2022/10/30 11:42:56;;;;;;;11.52;5.15;;;25.60;99.90;;;;;;5067722;28;20048;-72
2022/10/30 11:45:27;;;;;;;13.35;5.47;;;25.40;99.90;;;;;;5068052;28;20113;-74
2022/10/30 11:47:58;;;;;;;15.10;7.55;;;25.20;99.90;;;;;;5068043;28;20052;-73
2022/10/30 11:50:28;;;;;;;15.88;6.68;;;25.10;99.90;;;;;;5069704;28;20048;-72
2022/10/30 11:53:02;;;;;;;9.27;4.90;;;25.20;99.90;;;;;;5051634;28;20178;-74
2022/10/30 11:55:45;;;;;;;9.75;6.03;;;25.20;99.90;;;;;;5068574;28;20345;-74
2022/10/30 11:58:31;;;;;;;12.02;5.97;;;25.30;99.90;;;;;;5069002;28;20135;-74
2022/10/30 12:01:10;;;;;;;6.88;5.07;;;25.40;99.90;;;;;;5066962;28;20055;-73
2022/10/30 12:03:40;;;;;;;7.45;5.72;;;25.40;99.90;;;;;;5067793;28;20041;-73
2022/10/30 12:06:24;;;;;;;19.40;7.35;;;25.40;99.90;;;;;;5051188;28;20070;-73
2022/10/30 12:09:03;;;;;;;9.75;5.70;;;25.20;99.90;;;;;;5067252;28;20044;-72
2022/10/30 12:11:34;;;;;;;7.88;4.88;;;25.10;99.90;;;;;;5040015;28;20064;-72
2022/10/30 12:14:03;;;;;;;8.45;5.13;;;25.10;99.90;;;;;;5046762;28;20044;-72
2022/10/30 12:16:32;;;;;;;9.82;5.22;;;25.10;99.90;;;;;;5031258;28;20289;-72
2022/10/30 12:19:03;;;;;;;7.35;4.90;;;25.10;99.90;;;;;;5049965;28;20057;-73
2022/10/30 12:21:38;;;;;;;8.27;5.80;;;24.90;99.90;;;;;;5050742;28;20048;-73
2022/10/30 12:24:13;;;;;;;6.93;5.00;;;24.80;99.90;;;;;;5066841;28;20083;-73
2022/10/30 12:26:46;;;;;;;10.30;5.57;;;24.80;99.90;;;;;;5067297;28;20072;-72
2022/10/30 12:29:20;;;;;;;10.57;6.13;;;24.80;99.90;;;;;;5066589;28;20055;-73
2022/10/30 12:31:58;;;;;;;13.25;5.88;;;24.70;99.90;;;;;;5023588;28;20040;-74
2022/10/30 12:34:37;;;;;;;9.32;5.07;;;24.60;99.90;;;;;;5057946;28;20125;-74
2022/10/30 12:37:19;;;;;;;8.82;4.50;;;24.80;99.90;;;;;;5068922;28;20306;-73
2022/10/30 12:40:14;;;;;;;10.80;5.90;;;24.60;99.90;;;;;;5066753;28;20055;-73
2022/10/30 12:42:49;;;;;;;13.38;6.40;;;24.60;99.90;;;;;;5044833;28;20033;-74
2022/10/30 12:45:30;;;;;;;8.93;6.38;;;24.50;99.90;;;;;;5050947;28;20135;-72
2022/10/30 12:48:07;;;;;;;11.82;5.72;;;24.50;99.90;;;;;;5050250;28;20055;-72
2022/10/30 12:51:17;;;;;;;10.90;8.23;;;24.40;99.90;;;;;;5062033;28;20056;-74
2022/10/30 12:53:47;;;;;;;11.25;5.57;;;24.50;99.90;;;;;;5046882;28;20049;-73
2022/10/30 12:56:30;;;;;;;18.05;6.95;;;24.50;99.90;;;;;;5048510;28;20096;-72
2022/10/30 12:59:16;;;;;;;8.98;5.93;;;24.40;99.90;;;;;;5051471;28;20044;-73
2022/10/30 13:01:58;;;;;;;9.00;5.03;;;24.50;99.90;;;;;;5050875;28;20052;-72
2022/10/30 13:04:35;;;;;;;12.05;6.38;;;24.50;99.90;;;;;;5056131;28;20044;-71
2022/10/30 13:07:50;;;;;;;9.15;6.05;;;24.40;99.90;;;;;;5066129;28;20032;-73
2022/10/30 13:10:33;;;;;;;12.27;7.55;;;24.30;99.90;;;;;;5022767;28;20040;-72
2022/10/30 13:13:13;;;;;;;15.38;6.63;;;24.30;99.90;;;;;;5067260;28;20066;-73
2022/10/30 13:15:54;;;;;;;10.63;6.78;;;24.20;99.90;;;;;;5076737;28;20046;-73